createdAt,value
2023-02-13T00:01:59.740Z,4.261169
2023-02-13T00:05:24.837Z,4.241028
2023-02-13T00:08:50.014Z,4.261169
2023-02-13T00:12:15.243Z,4.261169
2023-02-13T00:15:40.399Z,4.089966
2023-02-13T00:19:05.546Z,4.059753
2023-02-13T00:22:30.740Z,4.039612
2023-02-13T00:25:55.910Z,4.049683
2023-02-13T00:29:21.119Z,4.079895
2023-02-13T00:32:46.254Z,4.01947
2023-02-13T00:36:11.447Z,3.959045
2023-02-13T00:39:36.640Z,3.928833
2023-02-13T00:43:01.807Z,3.878479
2023-02-13T00:46:27.118Z,3.747559
2023-02-13T00:49:52.191Z,3.656921
2023-02-13T00:53:17.327Z,3.616638
2023-02-13T00:56:42.544Z,3.536072
2023-02-13T01:00:07.718Z,3.465576
2023-02-13T01:03:32.937Z,3.425293
2023-02-13T01:06:58.091Z,3.425293
2023-02-13T01:10:23.266Z,3.314514
2023-02-13T01:13:48.449Z,3.213806
2023-02-13T01:17:13.638Z,3.143311
2023-02-13T01:20:38.852Z,3.113098
2023-02-13T01:24:03.992Z,3.002319
2023-02-13T01:27:29.171Z,3.052673
2023-02-13T01:30:54.418Z,3.052673
2023-02-13T01:34:19.526Z,3.032532
2023-02-13T01:37:44.747Z,2.931824
2023-02-13T01:41:09.900Z,2.810974
2023-02-13T01:44:35.084Z,2.810974
2023-02-13T01:48:00.259Z,2.720337
2023-02-13T01:51:25.451Z,2.659912
2023-02-13T01:54:50.659Z,2.6297
2023-02-13T01:58:15.826Z,2.528992
2023-02-13T02:01:41.121Z,2.488708
2023-02-13T02:05:06.190Z,2.448425
2023-02-13T02:08:31.335Z,2.408142
2023-02-13T02:11:56.552Z,2.247009
2023-02-13T02:15:21.696Z,2.226868
2023-02-13T02:18:46.877Z,2.166443
2023-02-13T02:22:12.068Z,2.156372
2023-02-13T02:25:37.255Z,2.085876
2023-02-13T02:29:02.454Z,2.116089
2023-02-13T02:32:27.628Z,2.166443
2023-02-13T02:35:52.839Z,2.13623
2023-02-13T02:39:18.001Z,2.095947
2023-02-13T02:42:43.183Z,1.995239
2023-02-13T02:46:08.391Z,1.995239
2023-02-13T02:49:33.555Z,2.015381
2023-02-13T02:52:58.729Z,2.055664
2023-02-13T02:56:23.926Z,2.025452
2023-02-13T02:59:49.101Z,1.995239
2023-02-13T03:03:14.323Z,1.954956
2023-02-13T03:06:39.477Z,1.813965
2023-02-13T03:10:04.709Z,1.733398
2023-02-13T03:13:29.845Z,1.62262
2023-02-13T03:16:55.042Z,1.511841
2023-02-13T03:20:20.282Z,1.451416
2023-02-13T03:23:45.410Z,1.441345
2023-02-13T03:27:10.609Z,1.50177
2023-02-13T03:30:35.788Z,1.542053
2023-02-13T03:34:00.955Z,1.511841
2023-02-13T03:37:26.165Z,1.552124
2023-02-13T03:40:51.326Z,1.592407
2023-02-13T03:44:16.510Z,1.683044
2023-02-13T03:47:41.705Z,1.703186
2023-02-13T03:51:06.902Z,1.733398
2023-02-13T03:54:32.082Z,1.793823
2023-02-13T03:57:57.267Z,1.813965
2023-02-13T04:01:22.479Z,1.975098
2023-02-13T04:04:47.601Z,1.985168
2023-02-13T04:08:12.808Z,1.995239
2023-02-13T04:11:38.013Z,1.985168
2023-02-13T04:15:03.140Z,2.045593
2023-02-13T04:18:28.334Z,2.13623
2023-02-13T04:21:53.515Z,2.085876
2023-02-13T04:25:18.727Z,2.156372
2023-02-13T04:28:43.939Z,2.116089
2023-02-13T04:32:09.096Z,2.156372
2023-02-13T04:35:34.265Z,2.156372
2023-02-13T04:38:59.431Z,2.176514
2023-02-13T04:42:24.611Z,2.166443
2023-02-13T04:45:49.860Z,2.156372
2023-02-13T04:49:14.990Z,2.065735
2023-02-13T04:52:40.198Z,2.095947
2023-02-13T04:56:05.376Z,2.065735
2023-02-13T04:59:30.573Z,2.13623
2023-02-13T05:02:55.771Z,2.065735
2023-02-13T05:06:20.927Z,2.055664
2023-02-13T05:09:46.129Z,2.065735
2023-02-13T05:13:11.306Z,2.065735
2023-02-13T05:16:36.489Z,2.156372
2023-02-13T05:20:01.697Z,2.206726
2023-02-13T05:23:26.839Z,2.206726
2023-02-13T05:26:52.035Z,2.116089
2023-02-13T05:30:17.203Z,2.13623
2023-02-13T05:33:42.412Z,2.176514
2023-02-13T05:37:07.652Z,2.206726
2023-02-13T05:40:32.813Z,2.166443
2023-02-13T05:43:58.016Z,2.055664
2023-02-13T05:47:23.190Z,2.065735
2023-02-13T05:50:48.376Z,2.025452
2023-02-13T05:54:13.581Z,1.995239
2023-02-13T05:57:38.733Z,2.025452
2023-02-13T06:01:03.899Z,2.055664
2023-02-13T06:04:29.078Z,2.015381
2023-02-13T06:07:54.389Z,1.995239
2023-02-13T06:11:19.597Z,1.934814
2023-02-13T06:14:44.791Z,1.975098
2023-02-13T06:18:09.933Z,1.88446
2023-02-13T06:21:35.642Z,1.88446
2023-02-13T06:25:00.834Z,2.065735
2023-02-13T06:28:26.094Z,2.176514
2023-02-13T06:31:51.244Z,2.247009
2023-02-13T06:35:17.053Z,2.357788
2023-02-13T06:38:42.266Z,2.528992
2023-02-13T06:42:07.528Z,2.659912
2023-02-13T06:45:32.743Z,2.710266
2023-02-13T06:48:57.904Z,2.770691
2023-02-13T06:52:23.078Z,2.780762
2023-02-13T06:55:48.276Z,2.810974
2023-02-13T06:59:13.461Z,2.851257
2023-02-13T07:02:38.705Z,2.901611
2023-02-13T07:06:03.816Z,2.921753
2023-02-13T07:09:29.008Z,3.002319
2023-02-13T07:13:05.205Z,3.062744
2023-02-13T07:16:19.423Z,3.183594
2023-02-13T07:19:44.625Z,3.203735
2023-02-13T07:23:09.824Z,3.26416
2023-02-13T07:26:34.999Z,3.324585
2023-02-13T07:30:00.208Z,3.324585
2023-02-13T07:33:25.400Z,3.38501
2023-02-13T07:36:50.704Z,3.445435
2023-02-13T07:40:15.840Z,3.495789
2023-02-13T07:43:41.053Z,3.505859
2023-02-13T07:47:06.328Z,3.536072
2023-02-13T07:50:31.448Z,3.646851
2023-02-13T07:53:57.624Z,3.717346
2023-02-13T07:57:21.838Z,3.727417
2023-02-13T08:00:47.029Z,3.797913
2023-02-13T08:04:12.331Z,3.938904
2023-02-13T08:07:37.409Z,4.01947
2023-02-13T08:11:02.640Z,4.14032
2023-02-13T08:14:27.798Z,4.180603
2023-02-13T08:17:52.992Z,4.291382
2023-02-13T08:21:18.161Z,4.361877
2023-02-13T08:24:43.383Z,4.422302
2023-02-13T08:28:08.654Z,4.422302
2023-02-13T08:31:33.828Z,4.472656
2023-02-13T08:34:58.936Z,4.52301
2023-02-13T08:38:25.113Z,4.583435
2023-02-13T08:41:50.349Z,4.553223
2023-02-13T08:45:15.615Z,4.674072
2023-02-13T08:48:40.761Z,4.694214
2023-02-13T08:52:05.964Z,4.784851
2023-02-13T08:55:31.152Z,4.855347
2023-02-13T08:58:56.324Z,4.855347
2023-02-13T09:02:21.581Z,4.996338
2023-02-13T09:05:46.716Z,5.066833
2023-02-13T09:09:11.964Z,5.097046
2023-02-13T09:12:37.154Z,5.197754
2023-02-13T09:16:08.182Z,5.207825
2023-02-13T09:19:33.426Z,5.238037
2023-02-13T09:22:58.568Z,5.308533
2023-02-13T09:26:23.752Z,5.39917
2023-02-13T09:29:48.938Z,5.429382
2023-02-13T09:33:14.128Z,5.560303
2023-02-13T09:36:39.328Z,5.600586
2023-02-13T09:40:04.483Z,5.630798
2023-02-13T09:43:29.703Z,5.741577
2023-02-13T09:46:56.088Z,5.822144
2023-02-13T09:50:21.360Z,5.892639
2023-02-13T09:53:46.568Z,5.912781
2023-02-13T09:57:11.719Z,6.03363
2023-02-13T10:00:36.942Z,6.124268
2023-02-13T10:04:02.151Z,6.174622
2023-02-13T10:07:27.363Z,6.224976
2023-02-13T10:10:52.575Z,6.27533
2023-02-13T10:14:17.793Z,6.305542
2023-02-13T10:17:43.016Z,6.325684
2023-02-13T10:21:08.207Z,6.40625
2023-02-13T10:24:33.418Z,6.456604
2023-02-13T10:27:58.627Z,6.587524
2023-02-13T10:31:23.870Z,6.668091
2023-02-13T10:34:48.965Z,6.668091
2023-02-13T10:38:14.180Z,6.708374
2023-02-13T10:41:39.336Z,6.758728
2023-02-13T10:45:04.534Z,6.799011
2023-02-13T10:48:29.747Z,6.869507
2023-02-13T10:51:54.918Z,6.90979
2023-02-13T10:55:20.123Z,6.970215
2023-02-13T10:58:45.313Z,7.060852
2023-02-13T11:02:10.541Z,7.121277
2023-02-13T11:05:35.696Z,7.121277
2023-02-13T11:09:00.894Z,7.101135
2023-02-13T11:12:26.114Z,6.919861
2023-02-13T11:15:51.396Z,7.03064
2023-02-13T11:19:16.562Z,7.131348
2023-02-13T11:22:41.740Z,7.312622
2023-02-13T11:26:06.966Z,7.423401
2023-02-13T11:29:32.144Z,7.393188
2023-02-13T11:32:57.329Z,7.403259
2023-02-13T11:36:22.610Z,7.322693
2023-02-13T11:39:49.037Z,7.302551
2023-02-13T11:43:12.956Z,7.393188
2023-02-13T11:46:38.264Z,7.393188
2023-02-13T11:50:03.348Z,7.352905
2023-02-13T11:53:28.590Z,7.463684
2023-02-13T11:57:06.540Z,7.503967
2023-02-13T12:00:19.149Z,7.53418
2023-02-13T12:03:44.393Z,7.584534
2023-02-13T12:07:09.519Z,7.554321
2023-02-13T12:10:34.739Z,7.604675
2023-02-13T12:14:00.132Z,7.634888
2023-02-13T12:17:31.572Z,7.614746
2023-02-13T12:20:50.526Z,7.614746
2023-02-13T12:24:15.737Z,7.715454
2023-02-13T12:27:40.978Z,7.644958
2023-02-13T12:31:06.203Z,7.685242
2023-02-13T12:34:31.326Z,7.675171
2023-02-13T12:37:56.514Z,7.6651
2023-02-13T12:41:21.715Z,7.705383
2023-02-13T12:44:46.913Z,7.715454
2023-02-13T12:48:12.094Z,7.685242
2023-02-13T12:51:38.076Z,7.675171
2023-02-13T12:55:03.278Z,7.584534
2023-02-13T12:58:28.492Z,7.6651
2023-02-13T13:01:53.722Z,7.705383
2023-02-13T13:05:18.876Z,7.816162
2023-02-13T13:08:44.088Z,7.765808
2023-02-13T13:12:09.265Z,7.705383
2023-02-13T13:15:34.475Z,7.614746
2023-02-13T13:18:59.710Z,7.584534
2023-02-13T13:22:24.870Z,7.584534
2023-02-13T13:25:50.070Z,7.584534
2023-02-13T13:29:15.248Z,7.614746
2023-02-13T13:32:40.445Z,7.644958
2023-02-13T13:36:05.655Z,7.644958
2023-02-13T13:39:30.827Z,7.634888
2023-02-13T13:42:56.051Z,7.6651
2023-02-13T13:46:21.266Z,7.796021
2023-02-13T13:49:46.429Z,7.614746
2023-02-13T13:53:11.700Z,7.554321
2023-02-13T13:56:36.863Z,7.574463
2023-02-13T14:00:02.113Z,7.524109
2023-02-13T14:03:27.278Z,7.524109
2023-02-13T14:06:52.508Z,7.614746
2023-02-13T14:10:17.714Z,7.554321
2023-02-13T14:13:42.904Z,7.503967
2023-02-13T14:17:08.123Z,7.503967
2023-02-13T14:20:33.321Z,7.53418
2023-02-13T14:23:58.491Z,7.493896
2023-02-13T14:27:23.725Z,7.433472
2023-02-13T14:30:49.005Z,7.463684
2023-02-13T15:06:26.610Z,7.28241
2023-02-13T15:09:51.862Z,7.171631
2023-02-13T15:13:17.170Z,7.171631
2023-02-13T15:16:42.345Z,7.211914
2023-02-13T15:20:07.557Z,7.242126
2023-02-13T15:23:32.915Z,7.252197
2023-02-13T15:26:58.104Z,7.211914
2023-02-13T15:30:23.351Z,7.131348
2023-02-13T15:33:48.515Z,6.970215
2023-02-13T15:37:13.975Z,6.839294
2023-02-13T15:40:39.227Z,6.758728
2023-02-13T15:44:04.372Z,6.698303
2023-02-13T15:47:29.548Z,6.65802
2023-02-13T15:50:54.803Z,6.637878
2023-02-13T15:54:19.980Z,6.65802
2023-02-13T15:57:45.192Z,6.587524
2023-02-13T16:01:10.300Z,6.436462
2023-02-13T16:04:35.471Z,6.335754
2023-02-13T16:08:00.706Z,6.295471
2023-02-13T16:11:25.873Z,6.174622
2023-02-13T16:14:51.077Z,6.043701
2023-02-13T16:18:16.285Z,5.932922
2023-02-13T16:21:41.564Z,5.741577
2023-02-13T16:25:06.763Z,5.65094
2023-02-13T16:28:31.931Z,5.580444
2023-02-13T16:32:20.484Z,5.509949
2023-02-13T16:35:45.668Z,5.429382
2023-02-13T16:39:10.858Z,5.348816
2023-02-13T16:42:36.091Z,5.217896
2023-02-13T16:46:01.514Z,5.167542
2023-02-13T16:49:27.181Z,5.086975
2023-02-13T16:52:52.009Z,5.056763
2023-02-13T16:56:17.208Z,5.036621
2023-02-13T16:59:42.446Z,4.986267
2023-02-13T17:03:07.625Z,4.915771
2023-02-13T17:06:32.876Z,4.835205
2023-02-13T17:09:59.050Z,4.674072
2023-02-13T17:13:25.507Z,4.623718
2023-02-13T17:17:04.997Z,4.512939
2023-02-13T17:20:30.294Z,4.472656
2023-02-13T17:23:55.701Z,4.472656
2023-02-13T17:27:22.750Z,4.442444
2023-02-13T17:30:46.173Z,4.422302
2023-02-13T17:34:11.322Z,4.412231
2023-02-13T17:37:36.555Z,4.331665
2023-02-13T17:41:01.951Z,4.241028
2023-02-13T17:44:27.092Z,4.261169
2023-02-13T17:47:52.325Z,4.261169
2023-02-13T17:51:17.633Z,4.220886
2023-02-13T17:54:42.933Z,4.150391
2023-02-13T17:58:08.342Z,4.220886
2023-02-13T18:01:33.695Z,4.230957
2023-02-13T18:04:58.899Z,4.241028
2023-02-13T18:08:24.140Z,4.200745
2023-02-13T18:12:03.673Z,4.230957
2023-02-13T18:15:14.915Z,4.220886
2023-02-13T18:18:40.207Z,4.241028
2023-02-13T18:22:05.546Z,4.180603
2023-02-13T18:25:30.816Z,4.150391
2023-02-13T18:28:56.174Z,4.180603
2023-02-13T18:32:21.452Z,4.110107
2023-02-13T18:35:46.746Z,4.110107
2023-02-13T18:39:12.040Z,4.160461
2023-02-13T18:42:37.332Z,4.160461
2023-02-13T18:46:02.632Z,4.220886
2023-02-13T18:49:27.910Z,4.180603
2023-02-13T18:52:53.054Z,4.230957
2023-02-13T18:56:18.372Z,4.230957
2023-02-13T18:59:43.670Z,4.230957
2023-02-13T19:03:08.981Z,4.241028
2023-02-13T19:06:34.302Z,4.261169
2023-02-13T19:09:59.528Z,4.241028
2023-02-13T19:13:24.810Z,4.220886
2023-02-13T19:16:50.066Z,4.200745
2023-02-13T19:20:16.801Z,4.220886
2023-02-13T19:23:40.704Z,4.200745
2023-02-13T19:27:05.882Z,4.180603
2023-02-13T19:30:31.137Z,4.14032
2023-02-13T19:33:56.494Z,4.180603
2023-02-13T19:37:21.775Z,4.200745
2023-02-13T19:40:47.052Z,4.200745
2023-02-13T19:44:12.329Z,4.14032
2023-02-13T19:47:37.594Z,4.120178
2023-02-13T19:51:02.916Z,4.110107
2023-02-13T19:54:28.212Z,4.110107
2023-02-13T19:57:53.561Z,4.110107
2023-02-13T20:01:18.850Z,4.039612
2023-02-13T20:04:44.103Z,3.928833
2023-02-13T20:08:09.407Z,3.969116
2023-02-13T20:11:34.671Z,4.049683
2023-02-13T20:14:59.934Z,4.079895
2023-02-13T20:18:25.150Z,4.059753
2023-02-13T20:21:50.373Z,4.039612
2023-02-13T20:25:15.551Z,4.01947
2023-02-13T20:28:40.707Z,3.898621
2023-02-13T20:32:06.061Z,3.959045
2023-02-13T20:35:31.187Z,3.999329
2023-02-13T20:38:56.349Z,3.959045
2023-02-13T20:42:21.576Z,3.898621
2023-02-13T20:45:46.842Z,3.898621
2023-02-13T20:49:11.948Z,3.878479
2023-02-13T20:52:37.143Z,3.878479
2023-02-13T20:56:02.306Z,3.898621
2023-02-13T20:59:27.517Z,3.938904
2023-02-13T21:02:52.744Z,3.969116
2023-02-13T21:06:18.268Z,3.969116
2023-02-13T21:09:43.538Z,4.01947
2023-02-13T21:13:08.805Z,4.059753
2023-02-13T21:16:35.025Z,4.059753
2023-02-13T21:20:00.536Z,4.110107
2023-02-13T21:23:25.875Z,4.079895
2023-02-13T21:26:51.239Z,4.089966
2023-02-13T21:30:16.456Z,4.039612
2023-02-13T21:33:41.574Z,3.969116
2023-02-13T21:37:06.804Z,3.959045
2023-02-13T21:40:31.976Z,3.908691
2023-02-13T21:43:57.142Z,3.878479
2023-02-13T21:47:22.352Z,3.938904
2023-02-13T21:50:47.466Z,3.999329
2023-02-13T21:54:12.638Z,3.999329
2023-02-13T21:57:37.852Z,4.059753
2023-02-13T22:01:03.115Z,4.089966
2023-02-13T22:04:28.165Z,4.089966
2023-02-13T22:07:53.346Z,4.120178
2023-02-13T22:11:18.512Z,4.14032
2023-02-13T22:14:43.700Z,4.110107
2023-02-13T22:18:08.846Z,4.079895
2023-02-13T22:21:34.021Z,4.01947
2023-02-13T22:24:59.191Z,4.039612
2023-02-13T22:28:24.370Z,4.01947
2023-02-13T22:31:49.768Z,4.059753
2023-02-13T22:35:14.717Z,4.01947
2023-02-13T22:38:39.900Z,3.969116
2023-02-13T22:42:05.101Z,3.938904
2023-02-13T22:45:30.300Z,3.938904
2023-02-13T22:48:55.496Z,3.898621
2023-02-13T22:52:20.640Z,3.928833
2023-02-13T22:55:45.829Z,3.938904
2023-02-13T22:59:10.986Z,3.959045
2023-02-13T23:02:36.267Z,3.969116
2023-02-13T23:06:01.359Z,3.908691
2023-02-13T23:09:26.497Z,3.908691
2023-02-13T23:12:51.681Z,3.858337
2023-02-13T23:16:16.961Z,3.858337
2023-02-13T23:19:42.066Z,3.878479
2023-02-13T23:23:07.306Z,3.858337
2023-02-13T23:26:32.398Z,3.908691
2023-02-13T23:29:57.601Z,3.898621
2023-02-13T23:33:22.739Z,3.969116
2023-02-13T23:36:47.912Z,3.979187
2023-02-13T23:40:13.121Z,4.049683
2023-02-13T23:43:38.277Z,3.908691
2023-02-13T23:47:03.473Z,3.938904
2023-02-13T23:50:28.663Z,3.999329
2023-02-13T23:53:53.813Z,4.039612
2023-02-13T23:57:19.019Z,4.039612
